sensor_id;sensor_type;location;lat;lon;timestamp;temperature;humidity
484;DHT22;228;48.922;12.198;2023-04-24T04:00:20;12.20;90.90
484;DHT22;228;48.922;12.198;2023-04-24T04:04:34;12.20;90.80
484;DHT22;228;48.922;12.198;2023-04-24T04:07:15;12.30;90.50
484;DHT22;228;48.922;12.198;2023-04-24T04:19:10;12.20;90.30
484;DHT22;228;48.922;12.198;2023-04-24T04:21:44;12.10;90.40
484;DHT22;228;48.922;12.198;2023-04-24T04:24:38;12.20;90.20
484;DHT22;228;48.922;12.198;2023-04-24T04:28:23;12.20;90.70
484;DHT22;228;48.922;12.198;2023-04-24T04:31:27;12.30;90.20
484;DHT22;228;48.922;12.198;2023-04-24T04:33:54;12.50;89.40
484;DHT22;228;48.922;12.198;2023-04-24T04:36:21;12.30;89.50
484;DHT22;228;48.922;12.198;2023-04-24T04:38:52;12.40;89.60
484;DHT22;228;48.922;12.198;2023-04-24T04:41:54;12.50;89.30
484;DHT22;228;48.922;12.198;2023-04-24T04:44:43;12.40;88.60
484;DHT22;228;48.922;12.198;2023-04-24T04:47:32;12.60;89.50
484;DHT22;228;48.922;12.198;2023-04-24T04:50:15;12.60;88.70
484;DHT22;228;48.922;12.198;2023-04-24T04:52:42;12.60;88.20
484;DHT22;228;48.922;12.198;2023-04-24T04:55:21;12.30;88.90
484;DHT22;228;48.922;12.198;2023-04-24T04:58:09;12.40;89.20
484;DHT22;228;48.922;12.198;2023-04-24T05:00:35;12.50;88.70
484;DHT22;228;48.922;12.198;2023-04-24T05:03:14;12.20;89.00
484;DHT22;228;48.922;12.198;2023-04-24T05:05:43;12.20;89.60
484;DHT22;228;48.922;12.198;2023-04-24T05:08:13;12.20;90.10
484;DHT22;228;48.922;12.198;2023-04-24T05:10:59;12.30;89.60
484;DHT22;228;48.922;12.198;2023-04-24T05:13:31;12.40;89.10
484;DHT22;228;48.922;12.198;2023-04-24T05:15:58;12.40;89.30
484;DHT22;228;48.922;12.198;2023-04-24T05:18:31;12.50;89.00
484;DHT22;228;48.922;12.198;2023-04-24T05:20:58;12.70;87.40
484;DHT22;228;48.922;12.198;2023-04-24T05:23:25;12.60;88.30
484;DHT22;228;48.922;12.198;2023-04-24T05:25:55;12.50;88.60
484;DHT22;228;48.922;12.198;2023-04-24T05:28:21;12.60;88.10
484;DHT22;228;48.922;12.198;2023-04-24T05:31:03;12.50;88.00
484;DHT22;228;48.922;12.198;2023-04-24T05:33:30;12.00;89.40
484;DHT22;228;48.922;12.198;2023-04-24T05:35:58;11.90;90.40
484;DHT22;228;48.922;12.198;2023-04-24T05:38:26;12.10;90.10
484;DHT22;228;48.922;12.198;2023-04-24T05:40:52;12.10;90.00
484;DHT22;228;48.922;12.198;2023-04-24T05:43:18;12.00;90.10
484;DHT22;228;48.922;12.198;2023-04-24T05:45:44;12.30;89.10
484;DHT22;228;48.922;12.198;2023-04-24T05:48:12;12.40;89.30
484;DHT22;228;48.922;12.198;2023-04-24T05:50:40;12.20;89.30
484;DHT22;228;48.922;12.198;2023-04-24T05:53:06;12.30;89.00
484;DHT22;228;48.922;12.198;2023-04-24T05:55:34;12.50;87.80
484;DHT22;228;48.922;12.198;2023-04-24T05:58:02;12.30;88.00
484;DHT22;228;48.922;12.198;2023-04-24T06:00:29;12.60;87.00
484;DHT22;228;48.922;12.198;2023-04-24T06:03:02;12.80;86.20
484;DHT22;228;48.922;12.198;2023-04-24T06:05:31;12.90;84.80
484;DHT22;228;48.922;12.198;2023-04-24T06:07:57;13.10;84.60
484;DHT22;228;48.922;12.198;2023-04-24T06:10:26;13.20;83.70
484;DHT22;228;48.922;12.198;2023-04-24T06:12:54;13.20;82.80
484;DHT22;228;48.922;12.198;2023-04-24T06:15:28;13.00;84.00
484;DHT22;228;48.922;12.198;2023-04-24T06:17:59;13.00;84.50
484;DHT22;228;48.922;12.198;2023-04-24T06:20:25;12.80;84.20
484;DHT22;228;48.922;12.198;2023-04-24T06:22:51;13.00;85.40
484;DHT22;228;48.922;12.198;2023-04-24T06:25:18;13.10;83.80
484;DHT22;228;48.922;12.198;2023-04-24T06:27:46;13.20;83.20
484;DHT22;228;48.922;12.198;2023-04-24T06:30:14;13.40;82.90
484;DHT22;228;48.922;12.198;2023-04-24T06:32:40;13.40;82.00
484;DHT22;228;48.922;12.198;2023-04-24T06:35:06;13.30;83.20
484;DHT22;228;48.922;12.198;2023-04-24T06:37:33;13.30;83.00
484;DHT22;228;48.922;12.198;2023-04-24T06:40:00;13.30;83.00
484;DHT22;228;48.922;12.198;2023-04-24T06:42:26;13.60;82.50
484;DHT22;228;48.922;12.198;2023-04-24T06:44:55;13.40;81.50
484;DHT22;228;48.922;12.198;2023-04-24T06:47:21;13.60;82.50
484;DHT22;228;48.922;12.198;2023-04-24T06:49:47;13.90;81.00
484;DHT22;228;48.922;12.198;2023-04-24T06:52:13;13.90;80.40
484;DHT22;228;48.922;12.198;2023-04-24T06:54:41;14.10;80.70
484;DHT22;228;48.922;12.198;2023-04-24T06:57:08;14.00;79.20
484;DHT22;228;48.922;12.198;2023-04-24T06:59:34;14.00;80.20
484;DHT22;228;48.922;12.198;2023-04-24T07:02:00;14.50;79.50
484;DHT22;228;48.922;12.198;2023-04-24T07:04:29;14.60;76.90
484;DHT22;228;48.922;12.198;2023-04-24T07:06:55;15.00;76.70
484;DHT22;228;48.922;12.198;2023-04-24T07:09:26;15.10;76.20
484;DHT22;228;48.922;12.198;2023-04-24T07:11:52;14.70;76.30
484;DHT22;228;48.922;12.198;2023-04-24T07:14:20;14.40;76.70
484;DHT22;228;48.922;12.198;2023-04-24T07:16:46;14.30;77.60
484;DHT22;228;48.922;12.198;2023-04-24T07:19:13;14.20;79.20
484;DHT22;228;48.922;12.198;2023-04-24T07:21:39;14.30;76.80
484;DHT22;228;48.922;12.198;2023-04-24T07:24:06;14.40;78.20
484;DHT22;228;48.922;12.198;2023-04-24T07:26:37;14.50;77.60
484;DHT22;228;48.922;12.198;2023-04-24T07:29:04;15.10;76.50
484;DHT22;228;48.922;12.198;2023-04-24T07:31:30;15.10;74.30
484;DHT22;228;48.922;12.198;2023-04-24T07:33:56;15.70;74.00
484;DHT22;228;48.922;12.198;2023-04-24T07:36:24;15.20;73.10
484;DHT22;228;48.922;12.198;2023-04-24T07:38:51;15.10;74.30
484;DHT22;228;48.922;12.198;2023-04-24T10:44:52;15.80;59.70
484;DHT22;228;48.922;12.198;2023-04-24T10:47:23;17.20;55.60
484;DHT22;228;48.922;12.198;2023-04-24T10:49:51;17.10;53.50
484;DHT22;228;48.922;12.198;2023-04-24T10:52:19;17.20;53.70
484;DHT22;228;48.922;12.198;2023-04-24T10:54:49;16.80;53.20
484;DHT22;228;48.922;12.198;2023-04-24T10:57:27;16.20;53.30
484;DHT22;228;48.922;12.198;2023-04-24T11:00:18;16.00;53.60
484;DHT22;228;48.922;12.198;2023-04-24T11:02:47;16.50;55.00
484;DHT22;228;48.922;12.198;2023-04-24T11:05:21;16.80;53.20
484;DHT22;228;48.922;12.198;2023-04-24T11:08:13;17.00;52.30
484;DHT22;228;48.922;12.198;2023-04-24T11:10:56;17.30;52.70
484;DHT22;228;48.922;12.198;2023-04-24T11:16:26;17.90;49.70
484;DHT22;228;48.922;12.198;2023-04-24T11:19:09;17.60;50.90
484;DHT22;228;48.922;12.198;2023-04-24T11:21:46;17.70;51.70
484;DHT22;228;48.922;12.198;2023-04-24T11:27:06;18.30;49.60
484;DHT22;228;48.922;12.198;2023-04-24T11:32:40;17.70;49.20
484;DHT22;228;48.922;12.198;2023-04-24T11:35:18;17.50;50.70
484;DHT22;228;48.922;12.198;2023-04-24T11:37:47;16.70;50.60
484;DHT22;228;48.922;12.198;2023-04-24T11:40:19;16.70;52.20
484;DHT22;228;48.922;12.198;2023-04-24T11:42:49;15.50;56.00
484;DHT22;228;48.922;12.198;2023-04-24T11:45:29;14.10;64.50
484;DHT22;228;48.922;12.198;2023-04-24T11:48:04;12.90;73.70
484;DHT22;228;48.922;12.198;2023-04-24T11:50:46;12.20;80.00
484;DHT22;228;48.922;12.198;2023-04-24T11:53:12;11.80;80.60
484;DHT22;228;48.922;12.198;2023-04-24T11:55:41;11.80;81.40
484;DHT22;228;48.922;12.198;2023-04-24T11:58:09;11.80;81.40
484;DHT22;228;48.922;12.198;2023-04-24T12:00:57;12.60;82.00
484;DHT22;228;48.922;12.198;2023-04-24T12:03:28;14.10;78.50
484;DHT22;228;48.922;12.198;2023-04-24T12:06:13;14.60;72.50
484;DHT22;228;48.922;12.198;2023-04-24T12:08:41;15.00;68.10
484;DHT22;228;48.922;12.198;2023-04-24T12:11:09;15.60;65.90
484;DHT22;228;48.922;12.198;2023-04-24T12:13:43;16.90;59.80
484;DHT22;228;48.922;12.198;2023-04-24T12:16:11;17.90;57.50
484;DHT22;228;48.922;12.198;2023-04-24T12:18:44;20.20;51.80
484;DHT22;228;48.922;12.198;2023-04-24T12:21:23;21.10;48.00
484;DHT22;228;48.922;12.198;2023-04-24T12:23:55;21.50;45.60
484;DHT22;228;48.922;12.198;2023-04-24T12:26:21;20.70;47.50
484;DHT22;228;48.922;12.198;2023-04-24T12:29:04;20.30;45.40
484;DHT22;228;48.922;12.198;2023-04-24T12:31:32;20.00;46.50
484;DHT22;228;48.922;12.198;2023-04-24T12:33:58;19.60;47.40
484;DHT22;228;48.922;12.198;2023-04-24T12:36:28;19.20;49.90
484;DHT22;228;48.922;12.198;2023-04-24T12:38:55;18.10;51.40
484;DHT22;228;48.922;12.198;2023-04-24T12:41:24;17.00;51.80
484;DHT22;228;48.922;12.198;2023-04-24T12:43:52;16.90;54.60
484;DHT22;228;48.922;12.198;2023-04-24T12:46:21;17.20;53.10
484;DHT22;228;48.922;12.198;2023-04-24T12:48:50;16.80;54.00
484;DHT22;228;48.922;12.198;2023-04-24T12:51:17;16.70;54.40
484;DHT22;228;48.922;12.198;2023-04-24T12:53:43;16.60;55.50
484;DHT22;228;48.922;12.198;2023-04-24T12:56:10;16.40;55.20
484;DHT22;228;48.922;12.198;2023-04-24T12:58:36;16.40;56.10
484;DHT22;228;48.922;12.198;2023-04-24T13:01:02;16.60;55.90
484;DHT22;228;48.922;12.198;2023-04-24T13:03:29;17.20;52.60
484;DHT22;228;48.922;12.198;2023-04-24T13:05:59;17.30;51.70
484;DHT22;228;48.922;12.198;2023-04-24T13:08:26;17.40;50.70
484;DHT22;228;48.922;12.198;2023-04-24T13:10:55;17.30;49.00
484;DHT22;228;48.922;12.198;2023-04-24T13:13:21;17.30;47.10
484;DHT22;228;48.922;12.198;2023-04-24T13:15:47;17.40;46.30
484;DHT22;228;48.922;12.198;2023-04-24T13:18:17;17.10;47.10
484;DHT22;228;48.922;12.198;2023-04-24T13:20:44;16.90;46.80
484;DHT22;228;48.922;12.198;2023-04-24T13:23:13;16.30;47.00
484;DHT22;228;48.922;12.198;2023-04-24T13:25:41;15.80;48.30
484;DHT22;228;48.922;12.198;2023-04-24T13:28:20;15.10;49.30
484;DHT22;228;48.922;12.198;2023-04-24T13:30:51;15.30;50.10
484;DHT22;228;48.922;12.198;2023-04-24T13:33:17;15.30;48.80
484;DHT22;228;48.922;12.198;2023-04-24T13:35:47;16.10;47.70
484;DHT22;228;48.922;12.198;2023-04-24T13:38:14;16.00;47.50
484;DHT22;228;48.922;12.198;2023-04-24T13:40:40;16.40;47.50
484;DHT22;228;48.922;12.198;2023-04-24T13:43:08;17.20;46.80
484;DHT22;228;48.922;12.198;2023-04-24T13:45:34;17.60;45.40
484;DHT22;228;48.922;12.198;2023-04-24T13:48:00;16.70;46.10
484;DHT22;228;48.922;12.198;2023-04-24T13:50:28;16.60;46.20
484;DHT22;228;48.922;12.198;2023-04-24T13:52:54;16.60;44.60
484;DHT22;228;48.922;12.198;2023-04-24T13:55:22;17.40;45.80
484;DHT22;228;48.922;12.198;2023-04-24T13:57:48;18.80;44.50
484;DHT22;228;48.922;12.198;2023-04-24T14:00:15;18.80;42.50
484;DHT22;228;48.922;12.198;2023-04-24T14:02:41;17.50;45.60
484;DHT22;228;48.922;12.198;2023-04-24T14:05:07;15.80;45.20
484;DHT22;228;48.922;12.198;2023-04-24T14:07:33;15.10;46.20
484;DHT22;228;48.922;12.198;2023-04-24T14:09:59;15.10;49.10
484;DHT22;228;48.922;12.198;2023-04-24T14:12:25;15.20;47.80
484;DHT22;228;48.922;12.198;2023-04-24T14:14:52;15.60;47.60
484;DHT22;228;48.922;12.198;2023-04-24T14:17:19;15.90;43.60
484;DHT22;228;48.922;12.198;2023-04-24T14:19:45;15.80;42.20
484;DHT22;228;48.922;12.198;2023-04-24T14:22:13;16.10;42.20
484;DHT22;228;48.922;12.198;2023-04-24T14:24:42;16.20;42.50
484;DHT22;228;48.922;12.198;2023-04-24T14:27:09;16.30;42.20
484;DHT22;228;48.922;12.198;2023-04-24T14:29:35;17.50;41.70
484;DHT22;228;48.922;12.198;2023-04-24T14:32:01;18.40;40.20
484;DHT22;228;48.922;12.198;2023-04-24T14:34:27;17.40;40.30
484;DHT22;228;48.922;12.198;2023-04-24T14:36:53;16.00;42.40
484;DHT22;228;48.922;12.198;2023-04-24T14:39:19;15.70;45.30
484;DHT22;228;48.922;12.198;2023-04-24T14:41:46;15.70;45.70
484;DHT22;228;48.922;12.198;2023-04-24T14:44:11;16.20;46.30
484;DHT22;228;48.922;12.198;2023-04-24T14:46:38;17.20;46.00
484;DHT22;228;48.922;12.198;2023-04-24T14:49:04;17.10;43.50
484;DHT22;228;48.922;12.198;2023-04-24T14:51:30;17.00;43.30
484;DHT22;228;48.922;12.198;2023-04-24T14:53:56;17.20;44.70
484;DHT22;228;48.922;12.198;2023-04-24T14:56:23;16.80;43.90
484;DHT22;228;48.922;12.198;2023-04-24T14:58:49;17.30;43.70
484;DHT22;228;48.922;12.198;2023-04-24T15:01:15;17.60;41.80
484;DHT22;228;48.922;12.198;2023-04-24T15:03:41;17.70;39.90
484;DHT22;228;48.922;12.198;2023-04-24T15:06:08;17.60;40.20
484;DHT22;228;48.922;12.198;2023-04-24T15:08:34;17.50;41.10
484;DHT22;228;48.922;12.198;2023-04-24T15:11:01;17.70;38.60
484;DHT22;228;48.922;12.198;2023-04-24T15:13:27;16.80;41.00
484;DHT22;228;48.922;12.198;2023-04-24T15:15:53;16.90;40.80
484;DHT22;228;48.922;12.198;2023-04-24T15:18:19;16.60;41.50
484;DHT22;228;48.922;12.198;2023-04-24T15:20:45;16.20;42.10
484;DHT22;228;48.922;12.198;2023-04-24T15:23:11;15.30;44.20
484;DHT22;228;48.922;12.198;2023-04-24T15:25:37;15.00;45.80
484;DHT22;228;48.922;12.198;2023-04-24T15:28:04;14.70;45.70
484;DHT22;228;48.922;12.198;2023-04-24T15:30:31;14.40;46.50
484;DHT22;228;48.922;12.198;2023-04-24T15:32:57;14.20;47.20
484;DHT22;228;48.922;12.198;2023-04-24T15:35:27;14.20;47.90
484;DHT22;228;48.922;12.198;2023-04-24T15:37:56;13.90;48.70
484;DHT22;228;48.922;12.198;2023-04-24T15:40:23;13.70;49.00
484;DHT22;228;48.922;12.198;2023-04-24T15:42:49;13.90;50.00
484;DHT22;228;48.922;12.198;2023-04-24T15:45:16;14.10;49.80
484;DHT22;228;48.922;12.198;2023-04-24T15:47:44;13.80;49.80
484;DHT22;228;48.922;12.198;2023-04-24T15:50:12;14.10;51.00
484;DHT22;228;48.922;12.198;2023-04-24T15:52:38;14.30;50.80
484;DHT22;228;48.922;12.198;2023-04-24T15:55:04;14.60;50.50
484;DHT22;228;48.922;12.198;2023-04-24T15:57:31;14.60;48.50
484;DHT22;228;48.922;12.198;2023-04-24T15:59:57;15.00;47.90
484;DHT22;228;48.922;12.198;2023-04-24T16:02:23;15.10;48.00
484;DHT22;228;48.922;12.198;2023-04-24T16:04:50;15.40;47.30
484;DHT22;228;48.922;12.198;2023-04-24T16:07:17;15.40;46.70
484;DHT22;228;48.922;12.198;2023-04-24T16:09:43;15.50;48.20
484;DHT22;228;48.922;12.198;2023-04-24T16:12:09;15.80;46.90
484;DHT22;228;48.922;12.198;2023-04-24T16:14:36;15.90;47.00
484;DHT22;228;48.922;12.198;2023-04-24T16:17:03;16.10;46.60
484;DHT22;228;48.922;12.198;2023-04-24T16:19:29;16.30;46.20
484;DHT22;228;48.922;12.198;2023-04-24T16:21:56;15.70;46.20
484;DHT22;228;48.922;12.198;2023-04-24T16:24:23;15.40;47.10
484;DHT22;228;48.922;12.198;2023-04-24T16:26:51;15.50;48.20
484;DHT22;228;48.922;12.198;2023-04-24T16:29:18;15.20;48.80
484;DHT22;228;48.922;12.198;2023-04-24T16:31:44;15.00;49.80
484;DHT22;228;48.922;12.198;2023-04-24T16:34:10;15.00;49.80
484;DHT22;228;48.922;12.198;2023-04-24T16:36:36;14.70;49.60
484;DHT22;228;48.922;12.198;2023-04-24T16:39:03;14.60;50.20
484;DHT22;228;48.922;12.198;2023-04-24T16:41:30;14.50;50.90
484;DHT22;228;48.922;12.198;2023-04-24T16:43:56;14.30;50.80
484;DHT22;228;48.922;12.198;2023-04-24T16:46:22;14.30;51.40
484;DHT22;228;48.922;12.198;2023-04-24T16:48:48;13.70;52.60
484;DHT22;228;48.922;12.198;2023-04-24T16:51:16;13.00;56.30
484;DHT22;228;48.922;12.198;2023-04-24T16:53:42;12.60;55.90
484;DHT22;228;48.922;12.198;2023-04-24T16:56:08;12.80;55.20
484;DHT22;228;48.922;12.198;2023-04-24T16:58:34;12.90;55.00
484;DHT22;228;48.922;12.198;2023-04-24T17:01:00;13.10;55.30
484;DHT22;228;48.922;12.198;2023-04-24T17:03:26;13.60;55.00
484;DHT22;228;48.922;12.198;2023-04-24T17:05:52;13.40;53.30
484;DHT22;228;48.922;12.198;2023-04-24T17:08:22;13.40;51.90
484;DHT22;228;48.922;12.198;2023-04-24T17:10:57;13.30;51.60
484;DHT22;228;48.922;12.198;2023-04-24T17:13:24;13.20;52.50
484;DHT22;228;48.922;12.198;2023-04-24T17:15:51;13.20;50.80
484;DHT22;228;48.922;12.198;2023-04-24T17:18:21;13.10;50.90
484;DHT22;228;48.922;12.198;2023-04-24T17:20:50;13.20;51.90
484;DHT22;228;48.922;12.198;2023-04-24T17:23:16;13.30;51.80
484;DHT22;228;48.922;12.198;2023-04-24T17:25:42;13.20;52.20
484;DHT22;228;48.922;12.198;2023-04-24T17:28:24;13.20;52.00
484;DHT22;228;48.922;12.198;2023-04-24T17:30:56;13.10;52.40
484;DHT22;228;48.922;12.198;2023-04-24T17:33:23;12.90;52.50
484;DHT22;228;48.922;12.198;2023-04-24T17:35:50;12.80;53.60
484;DHT22;228;48.922;12.198;2023-04-24T17:38:19;12.80;53.60
484;DHT22;228;48.922;12.198;2023-04-24T17:40:45;13.00;53.90
484;DHT22;228;48.922;12.198;2023-04-24T17:43:13;13.10;53.90
484;DHT22;228;48.922;12.198;2023-04-24T17:45:49;12.80;53.80
484;DHT22;228;48.922;12.198;2023-04-24T17:48:19;12.60;54.50
484;DHT22;228;48.922;12.198;2023-04-24T17:50:45;12.50;55.00
484;DHT22;228;48.922;12.198;2023-04-24T17:53:11;12.50;54.20
484;DHT22;228;48.922;12.198;2023-04-24T17:55:42;12.60;53.60
484;DHT22;228;48.922;12.198;2023-04-24T17:58:09;12.80;54.80
484;DHT22;228;48.922;12.198;2023-04-24T18:00:35;12.80;55.00
484;DHT22;228;48.922;12.198;2023-04-24T18:03:03;12.50;55.60
484;DHT22;228;48.922;12.198;2023-04-24T18:05:35;12.70;56.40
484;DHT22;228;48.922;12.198;2023-04-24T18:08:05;12.30;55.60
484;DHT22;228;48.922;12.198;2023-04-24T18:10:32;12.30;55.10
484;DHT22;228;48.922;12.198;2023-04-24T18:13:02;12.00;55.00
484;DHT22;228;48.922;12.198;2023-04-24T18:15:32;12.00;56.10
484;DHT22;228;48.922;12.198;2023-04-24T18:18:00;11.90;55.70
484;DHT22;228;48.922;12.198;2023-04-24T18:20:26;11.80;56.10
484;DHT22;228;48.922;12.198;2023-04-24T18:22:53;11.70;56.10
484;DHT22;228;48.922;12.198;2023-04-24T18:25:19;11.60;56.80
484;DHT22;228;48.922;12.198;2023-04-24T18:27:51;11.60;57.30
484;DHT22;228;48.922;12.198;2023-04-24T18:30:19;11.40;57.40
484;DHT22;228;48.922;12.198;2023-04-24T18:32:58;11.50;57.90
484;DHT22;228;48.922;12.198;2023-04-24T18:35:24;11.50;57.50
484;DHT22;228;48.922;12.198;2023-04-24T18:37:53;11.80;57.30
484;DHT22;228;48.922;12.198;2023-04-24T18:40:19;11.70;56.80
484;DHT22;228;48.922;12.198;2023-04-24T18:42:45;11.70;57.30
484;DHT22;228;48.922;12.198;2023-04-24T18:45:13;11.60;57.60
484;DHT22;228;48.922;12.198;2023-04-24T18:47:43;11.80;57.40
484;DHT22;228;48.922;12.198;2023-04-24T18:50:12;11.60;56.90
484;DHT22;228;48.922;12.198;2023-04-24T18:52:39;11.60;57.90
484;DHT22;228;48.922;12.198;2023-04-24T18:55:05;11.60;57.90
484;DHT22;228;48.922;12.198;2023-04-24T18:57:32;11.60;58.40
484;DHT22;228;48.922;12.198;2023-04-24T18:59:58;11.70;58.30
484;DHT22;228;48.922;12.198;2023-04-24T19:02:24;11.80;57.90
484;DHT22;228;48.922;12.198;2023-04-24T19:04:50;11.80;58.40
484;DHT22;228;48.922;12.198;2023-04-24T19:07:16;11.80;58.20
484;DHT22;228;48.922;12.198;2023-04-24T19:09:44;12.00;57.80
484;DHT22;228;48.922;12.198;2023-04-24T19:12:10;11.90;57.80
484;DHT22;228;48.922;12.198;2023-04-24T19:14:36;11.90;58.00
484;DHT22;228;48.922;12.198;2023-04-24T19:17:02;11.70;58.30
484;DHT22;228;48.922;12.198;2023-04-24T19:19:28;11.70;58.50
484;DHT22;228;48.922;12.198;2023-04-24T19:21:56;11.90;58.50
484;DHT22;228;48.922;12.198;2023-04-24T19:24:23;12.00;58.00
484;DHT22;228;48.922;12.198;2023-04-24T19:26:50;11.90;58.00
484;DHT22;228;48.922;12.198;2023-04-24T19:29:16;11.90;57.50
484;DHT22;228;48.922;12.198;2023-04-24T19:31:42;12.00;57.50
484;DHT22;228;48.922;12.198;2023-04-24T19:34:08;11.90;57.30
484;DHT22;228;48.922;12.198;2023-04-24T19:36:34;11.60;57.70
484;DHT22;228;48.922;12.198;2023-04-24T19:39:01;11.50;58.10
484;DHT22;228;48.922;12.198;2023-04-24T19:41:27;11.50;58.40
484;DHT22;228;48.922;12.198;2023-04-24T19:43:53;11.00;59.00
484;DHT22;228;48.922;12.198;2023-04-24T19:46:20;11.00;59.40
484;DHT22;228;48.922;12.198;2023-04-24T19:48:48;10.90;59.80
484;DHT22;228;48.922;12.198;2023-04-24T19:51:14;11.10;60.20
484;DHT22;228;48.922;12.198;2023-04-24T19:53:40;10.90;60.00
484;DHT22;228;48.922;12.198;2023-04-24T19:56:08;11.40;59.50
484;DHT22;228;48.922;12.198;2023-04-24T19:58:35;11.70;58.90
484;DHT22;228;48.922;12.198;2023-04-24T20:01:01;11.60;58.50
484;DHT22;228;48.922;12.198;2023-04-24T20:03:29;11.70;58.40
484;DHT22;228;48.922;12.198;2023-04-24T20:05:56;11.90;57.80
484;DHT22;228;48.922;12.198;2023-04-24T20:08:22;11.90;58.50
484;DHT22;228;48.922;12.198;2023-04-24T20:10:48;11.90;58.00
484;DHT22;228;48.922;12.198;2023-04-24T20:13:15;11.90;58.70
484;DHT22;228;48.922;12.198;2023-04-24T20:15:43;11.80;59.20
484;DHT22;228;48.922;12.198;2023-04-24T20:18:09;11.80;58.40
484;DHT22;228;48.922;12.198;2023-04-24T20:20:38;11.60;59.70
484;DHT22;228;48.922;12.198;2023-04-24T20:23:18;11.50;59.70
484;DHT22;228;48.922;12.198;2023-04-24T20:25:52;11.60;60.90
484;DHT22;228;48.922;12.198;2023-04-24T20:28:25;11.60;60.80
484;DHT22;228;48.922;12.198;2023-04-24T20:30:56;11.50;61.30
484;DHT22;228;48.922;12.198;2023-04-24T20:33:23;11.70;60.90
484;DHT22;228;48.922;12.198;2023-04-24T20:35:50;11.60;61.30
484;DHT22;228;48.922;12.198;2023-04-24T20:38:17;11.80;60.80
484;DHT22;228;48.922;12.198;2023-04-24T20:40:48;11.90;59.90
484;DHT22;228;48.922;12.198;2023-04-24T20:43:22;12.10;60.00
484;DHT22;228;48.922;12.198;2023-04-24T20:47:30;12.10;60.10
484;DHT22;228;48.922;12.198;2023-04-24T20:50:08;12.30;59.30
484;DHT22;228;48.922;12.198;2023-04-24T20:52:42;12.40;58.90
484;DHT22;228;48.922;12.198;2023-04-24T20:55:12;12.30;59.10
484;DHT22;228;48.922;12.198;2023-04-24T20:58:54;12.30;59.40
484;DHT22;228;48.922;12.198;2023-04-24T21:01:45;12.70;58.70
484;DHT22;228;48.922;12.198;2023-04-24T21:04:40;12.80;57.50
484;DHT22;228;48.922;12.198;2023-04-24T21:08:47;12.50;58.10
484;DHT22;228;48.922;12.198;2023-04-24T21:12:22;12.30;59.60
484;DHT22;228;48.922;12.198;2023-04-24T21:14:48;12.40;58.30
